Britt, MN (55710)

10:46 AM CST on March 06, 2015 (GMT -0600)
Cook Municipal | Change Station
CLOSE
Current Station
Airport
Location: Cook,
Elevation: 1325 ft
Nearby Weather Stations

Elev 1325 ft 47.82 °N, 92.69 °W | Updated 12 minutes ago

Clear
Clear
21 °F
Feels Like 10 °F
N
12
Wind Variable Wind from WNW
Gusts 17 mph

Today
High -- | Low -- °F
--% Chance of Precip.
Yesterday
High -- | Low -- °F
Precip. -- in
6:41 AM 6:02 PM
Full, 99% visible
Pressure 29.94 in
Visibility 10.0 miles
Clouds Clear
Windchill 10 °F
Dew Point 9 °F
Humidity 58%
Rainfall 0.00 in
Snow Depth Not available.
UV 3 out of 12
Pollen .10 out of 12
Air Quality Not available.
Flu Activity Not available.
METAR KCQM 061634Z AUTO 29010G15KT 10SM CLR M06/M13 A2994 RMK AO2

More Conditions Fewer Conditions

Pressure 29.94 in
Visibility 10.0 miles
Clouds Clear
Windchill 10 °F
Dew Point 9 °F
Humidity 58%
Rainfall 0.00 in
Snow Depth Not available.
UV 3 out of 12
Pollen .10 out of 12
Air Quality Not available.
Flu Activity Not available.
METAR KCQM 061634Z AUTO 29010G15KT 10SM CLR M06/M13 A2994 RMK AO2

More Conditions Fewer Conditions

10-Day Weather Forecast

Almanac

Astronomy

Mar. 06, 2015 Rise Set
Actual Time
Civil Twilight
Nautical Twilight
Astronomical Twilight
Moon
Length of Visible Light
Length of Day
Tomorrow will be .
, % of the Moon is Illuminated

Today's Extremes

State Highs State Lows

Community

WunderPhotos

Upload Photos

1,803,336 photos uploaded!

WunderBlogs® & News

Nearby

Air Quality

  Air Quality AQ Index Pollutant
Not available.

Snow Depth

Station Depth Elevation

Earthquake Activity

City Distance Mag. Time & Date
Minimum magnitude displayed is 2.5.

Coastal Water Temperatures

Place Temperature

Nearby Weather Stations